sensor_id;sensor_type;location;lat;lon;timestamp;pressure;altitude;pressure_sealevel;temperature
20733;BMP180;10527;52.124;5.196;2023-07-09T00:02:18;101621.00;;;36.60
20733;BMP180;10527;52.124;5.196;2023-07-09T00:04:46;101622.00;;;36.50
20733;BMP180;10527;52.124;5.196;2023-07-09T00:07:30;101621.00;;;36.50
20733;BMP180;10527;52.124;5.196;2023-07-09T00:09:59;101632.00;;;36.50
20733;BMP180;10527;52.124;5.196;2023-07-09T00:12:26;101626.00;;;36.50
20733;BMP180;10527;52.124;5.196;2023-07-09T00:14:54;101635.00;;;36.40
20733;BMP180;10527;52.124;5.196;2023-07-09T00:19:53;101636.00;;;36.40
20733;BMP180;10527;52.124;5.196;2023-07-09T00:22:20;101637.00;;;36.30
20733;BMP180;10527;52.124;5.196;2023-07-09T00:24:51;101632.00;;;36.30
20733;BMP180;10527;52.124;5.196;2023-07-09T00:27:20;101641.00;;;36.30
20733;BMP180;10527;52.124;5.196;2023-07-09T00:29:47;101640.00;;;36.20
20733;BMP180;10527;52.124;5.196;2023-07-09T00:32:18;101639.00;;;36.20
20733;BMP180;10527;52.124;5.196;2023-07-09T00:34:48;101649.00;;;36.10
20733;BMP180;10527;52.124;5.196;2023-07-09T00:37:21;101649.00;;;36.10
20733;BMP180;10527;52.124;5.196;2023-07-09T00:39:52;101649.00;;;36.10
20733;BMP180;10527;52.124;5.196;2023-07-09T00:42:21;101646.00;;;36.00
20733;BMP180;10527;52.124;5.196;2023-07-09T00:44:54;101649.00;;;36.00
20733;BMP180;10527;52.124;5.196;2023-07-09T00:47:45;101651.00;;;36.00
20733;BMP180;10527;52.124;5.196;2023-07-09T00:52:58;101654.00;;;35.90
20733;BMP180;10527;52.124;5.196;2023-07-09T00:55:30;101655.00;;;35.90
20733;BMP180;10527;52.124;5.196;2023-07-09T00:58:10;101658.00;;;35.80
20733;BMP180;10527;52.124;5.196;2023-07-09T01:00:45;101648.00;;;35.80
20733;BMP180;10527;52.124;5.196;2023-07-09T01:03:36;101650.00;;;35.80
20733;BMP180;10527;52.124;5.196;2023-07-09T01:06:05;101647.00;;;35.70
20733;BMP180;10527;52.124;5.196;2023-07-09T01:08:36;101641.00;;;35.70
20733;BMP180;10527;52.124;5.196;2023-07-09T01:11:04;101641.00;;;35.70
20733;BMP180;10527;52.124;5.196;2023-07-09T01:13:35;101640.00;;;35.70
20733;BMP180;10527;52.124;5.196;2023-07-09T01:16:02;101633.00;;;35.60
20733;BMP180;10527;52.124;5.196;2023-07-09T01:18:30;101651.00;;;35.60
20733;BMP180;10527;52.124;5.196;2023-07-09T01:21:03;101648.00;;;35.60
20733;BMP180;10527;52.124;5.196;2023-07-09T01:23:34;101646.00;;;35.50
20733;BMP180;10527;52.124;5.196;2023-07-09T01:26:01;101653.00;;;35.50
20733;BMP180;10527;52.124;5.196;2023-07-09T01:28:28;101656.00;;;35.50
20733;BMP180;10527;52.124;5.196;2023-07-09T01:30:55;101654.00;;;35.40
20733;BMP180;10527;52.124;5.196;2023-07-09T01:33:23;101646.00;;;35.40
20733;BMP180;10527;52.124;5.196;2023-07-09T01:35:50;101656.00;;;35.40
20733;BMP180;10527;52.124;5.196;2023-07-09T01:38:19;101658.00;;;35.30
20733;BMP180;10527;52.124;5.196;2023-07-09T01:40:47;101658.00;;;35.30
20733;BMP180;10527;52.124;5.196;2023-07-09T01:43:13;101659.00;;;35.30
20733;BMP180;10527;52.124;5.196;2023-07-09T01:45:40;101660.00;;;35.30
20733;BMP180;10527;52.124;5.196;2023-07-09T01:48:07;101664.00;;;35.20
20733;BMP180;10527;52.124;5.196;2023-07-09T01:50:43;101668.00;;;35.20
20733;BMP180;10527;52.124;5.196;2023-07-09T01:53:16;101658.00;;;35.20
20733;BMP180;10527;52.124;5.196;2023-07-09T01:55:45;101656.00;;;35.10
20733;BMP180;10527;52.124;5.196;2023-07-09T01:58:12;101652.00;;;35.10
20733;BMP180;10527;52.124;5.196;2023-07-09T02:00:38;101656.00;;;35.10
20733;BMP180;10527;52.124;5.196;2023-07-09T02:03:08;101662.00;;;35.10
20733;BMP180;10527;52.124;5.196;2023-07-09T02:05:35;101660.00;;;35.00
20733;BMP180;10527;52.124;5.196;2023-07-09T02:08:04;101661.00;;;35.00
20733;BMP180;10527;52.124;5.196;2023-07-09T02:10:31;101660.00;;;34.90
20733;BMP180;10527;52.124;5.196;2023-07-09T02:12:58;101660.00;;;34.90
20733;BMP180;10527;52.124;5.196;2023-07-09T02:15:24;101661.00;;;34.90
20733;BMP180;10527;52.124;5.196;2023-07-09T02:17:52;101663.00;;;34.90
20733;BMP180;10527;52.124;5.196;2023-07-09T02:20:19;101653.00;;;34.80
20733;BMP180;10527;52.124;5.196;2023-07-09T02:22:50;101653.00;;;34.80
20733;BMP180;10527;52.124;5.196;2023-07-09T02:25:17;101654.00;;;34.80
20733;BMP180;10527;52.124;5.196;2023-07-09T02:27:44;101656.00;;;34.80
20733;BMP180;10527;52.124;5.196;2023-07-09T02:30:11;101657.00;;;34.70
20733;BMP180;10527;52.124;5.196;2023-07-09T02:32:38;101660.00;;;34.70
20733;BMP180;10527;52.124;5.196;2023-07-09T02:35:07;101650.00;;;34.70
20733;BMP180;10527;52.124;5.196;2023-07-09T02:37:34;101657.00;;;34.70
20733;BMP180;10527;52.124;5.196;2023-07-09T02:40:03;101650.00;;;34.60
20733;BMP180;10527;52.124;5.196;2023-07-09T02:42:35;101641.00;;;34.60
20733;BMP180;10527;52.124;5.196;2023-07-09T02:45:04;101646.00;;;34.60
20733;BMP180;10527;52.124;5.196;2023-07-09T02:47:31;101650.00;;;34.50
20733;BMP180;10527;52.124;5.196;2023-07-09T02:49:58;101652.00;;;34.50
20733;BMP180;10527;52.124;5.196;2023-07-09T02:52:25;101650.00;;;34.50
20733;BMP180;10527;52.124;5.196;2023-07-09T02:54:53;101648.00;;;34.50
20733;BMP180;10527;52.124;5.196;2023-07-09T02:57:20;101659.00;;;34.40
20733;BMP180;10527;52.124;5.196;2023-07-09T02:59:47;101659.00;;;34.40
20733;BMP180;10527;52.124;5.196;2023-07-09T03:02:14;101658.00;;;34.40
20733;BMP180;10527;52.124;5.196;2023-07-09T03:04:41;101657.00;;;34.30
20733;BMP180;10527;52.124;5.196;2023-07-09T03:07:07;101653.00;;;34.30
20733;BMP180;10527;52.124;5.196;2023-07-09T03:09:34;101657.00;;;34.30
20733;BMP180;10527;52.124;5.196;2023-07-09T03:12:01;101654.00;;;34.20
20733;BMP180;10527;52.124;5.196;2023-07-09T03:14:28;101661.00;;;34.20
20733;BMP180;10527;52.124;5.196;2023-07-09T03:16:55;101655.00;;;34.20
20733;BMP180;10527;52.124;5.196;2023-07-09T03:19:23;101655.00;;;34.20
20733;BMP180;10527;52.124;5.196;2023-07-09T03:21:50;101663.00;;;34.10
20733;BMP180;10527;52.124;5.196;2023-07-09T03:24:17;101653.00;;;34.10
20733;BMP180;10527;52.124;5.196;2023-07-09T03:26:46;101663.00;;;34.10
20733;BMP180;10527;52.124;5.196;2023-07-09T03:29:14;101660.00;;;34.10
20733;BMP180;10527;52.124;5.196;2023-07-09T03:31:41;101661.00;;;34.00
20733;BMP180;10527;52.124;5.196;2023-07-09T03:34:08;101656.00;;;34.00
20733;BMP180;10527;52.124;5.196;2023-07-09T03:36:35;101661.00;;;34.00
20733;BMP180;10527;52.124;5.196;2023-07-09T03:39:06;101656.00;;;34.00
20733;BMP180;10527;52.124;5.196;2023-07-09T03:41:34;101659.00;;;34.00
20733;BMP180;10527;52.124;5.196;2023-07-09T03:44:02;101659.00;;;34.00
20733;BMP180;10527;52.124;5.196;2023-07-09T03:46:29;101666.00;;;33.90
20733;BMP180;10527;52.124;5.196;2023-07-09T03:48:59;101668.00;;;33.90
20733;BMP180;10527;52.124;5.196;2023-07-09T03:51:26;101673.00;;;33.90
20733;BMP180;10527;52.124;5.196;2023-07-09T03:53:53;101676.00;;;33.90
20733;BMP180;10527;52.124;5.196;2023-07-09T03:56:20;101677.00;;;33.90
20733;BMP180;10527;52.124;5.196;2023-07-09T03:58:47;101685.00;;;33.90
20733;BMP180;10527;52.124;5.196;2023-07-09T04:01:14;101681.00;;;33.80
20733;BMP180;10527;52.124;5.196;2023-07-09T04:03:43;101677.00;;;33.80
20733;BMP180;10527;52.124;5.196;2023-07-09T04:06:10;101683.00;;;33.80
20733;BMP180;10527;52.124;5.196;2023-07-09T04:08:37;101682.00;;;33.80
20733;BMP180;10527;52.124;5.196;2023-07-09T04:11:04;101673.00;;;33.70
20733;BMP180;10527;52.124;5.196;2023-07-09T04:13:31;101676.00;;;33.70
20733;BMP180;10527;52.124;5.196;2023-07-09T04:15:59;101675.00;;;33.70
20733;BMP180;10527;52.124;5.196;2023-07-09T04:18:27;101675.00;;;33.70
20733;BMP180;10527;52.124;5.196;2023-07-09T04:20:54;101682.00;;;33.70
20733;BMP180;10527;52.124;5.196;2023-07-09T04:23:21;101685.00;;;33.70
20733;BMP180;10527;52.124;5.196;2023-07-09T04:25:47;101677.00;;;33.70
20733;BMP180;10527;52.124;5.196;2023-07-09T04:28:15;101679.00;;;33.70
20733;BMP180;10527;52.124;5.196;2023-07-09T04:30:52;101683.00;;;33.70
20733;BMP180;10527;52.124;5.196;2023-07-09T04:33:20;101677.00;;;33.70
20733;BMP180;10527;52.124;5.196;2023-07-09T04:35:49;101677.00;;;33.70
20733;BMP180;10527;52.124;5.196;2023-07-09T04:38:16;101677.00;;;33.70
20733;BMP180;10527;52.124;5.196;2023-07-09T04:40:43;101676.00;;;33.70
20733;BMP180;10527;52.124;5.196;2023-07-09T04:43:13;101675.00;;;33.70
20733;BMP180;10527;52.124;5.196;2023-07-09T04:45:40;101671.00;;;33.70
20733;BMP180;10527;52.124;5.196;2023-07-09T04:48:07;101673.00;;;33.70
20733;BMP180;10527;52.124;5.196;2023-07-09T04:50:34;101670.00;;;33.70
20733;BMP180;10527;52.124;5.196;2023-07-09T04:53:01;101669.00;;;33.70
20733;BMP180;10527;52.124;5.196;2023-07-09T04:55:28;101662.00;;;33.70
20733;BMP180;10527;52.124;5.196;2023-07-09T04:57:55;101668.00;;;33.70
20733;BMP180;10527;52.124;5.196;2023-07-09T05:00:22;101669.00;;;33.70
20733;BMP180;10527;52.124;5.196;2023-07-09T05:02:49;101668.00;;;33.80
20733;BMP180;10527;52.124;5.196;2023-07-09T05:05:16;101670.00;;;33.80
20733;BMP180;10527;52.124;5.196;2023-07-09T05:07:43;101662.00;;;33.80
20733;BMP180;10527;52.124;5.196;2023-07-09T05:10:10;101665.00;;;33.80
20733;BMP180;10527;52.124;5.196;2023-07-09T05:12:54;101666.00;;;33.80
20733;BMP180;10527;52.124;5.196;2023-07-09T05:15:23;101655.00;;;33.80
20733;BMP180;10527;52.124;5.196;2023-07-09T05:17:51;101666.00;;;33.80
20733;BMP180;10527;52.124;5.196;2023-07-09T05:20:18;101656.00;;;33.80
20733;BMP180;10527;52.124;5.196;2023-07-09T05:22:45;101663.00;;;33.80
20733;BMP180;10527;52.124;5.196;2023-07-09T05:25:12;101664.00;;;33.80
20733;BMP180;10527;52.124;5.196;2023-07-09T05:27:39;101656.00;;;33.90
20733;BMP180;10527;52.124;5.196;2023-07-09T05:30:07;101656.00;;;33.90
20733;BMP180;10527;52.124;5.196;2023-07-09T05:32:36;101663.00;;;33.90
20733;BMP180;10527;52.124;5.196;2023-07-09T05:35:04;101658.00;;;34.00
20733;BMP180;10527;52.124;5.196;2023-07-09T05:37:31;101654.00;;;34.00
20733;BMP180;10527;52.124;5.196;2023-07-09T05:39:58;101657.00;;;34.00
20733;BMP180;10527;52.124;5.196;2023-07-09T05:42:26;101656.00;;;34.10
20733;BMP180;10527;52.124;5.196;2023-07-09T05:44:52;101654.00;;;34.10
20733;BMP180;10527;52.124;5.196;2023-07-09T05:47:19;101667.00;;;34.20
20733;BMP180;10527;52.124;5.196;2023-07-09T05:49:46;101662.00;;;34.20
20733;BMP180;10527;52.124;5.196;2023-07-09T05:52:18;101665.00;;;34.30
20733;BMP180;10527;52.124;5.196;2023-07-09T05:54:45;101664.00;;;34.30
20733;BMP180;10527;52.124;5.196;2023-07-09T05:57:12;101673.00;;;34.40
20733;BMP180;10527;52.124;5.196;2023-07-09T05:59:39;101668.00;;;34.40
20733;BMP180;10527;52.124;5.196;2023-07-09T06:02:11;101670.00;;;34.40
20733;BMP180;10527;52.124;5.196;2023-07-09T06:04:39;101665.00;;;34.50
20733;BMP180;10527;52.124;5.196;2023-07-09T06:07:06;101668.00;;;34.50
20733;BMP180;10527;52.124;5.196;2023-07-09T06:09:34;101677.00;;;34.60
20733;BMP180;10527;52.124;5.196;2023-07-09T06:12:02;101682.00;;;34.60
20733;BMP180;10527;52.124;5.196;2023-07-09T06:14:31;101677.00;;;34.70
20733;BMP180;10527;52.124;5.196;2023-07-09T06:16:59;101682.00;;;34.70
20733;BMP180;10527;52.124;5.196;2023-07-09T06:19:27;101687.00;;;34.80
20733;BMP180;10527;52.124;5.196;2023-07-09T06:21:54;101684.00;;;34.80
20733;BMP180;10527;52.124;5.196;2023-07-09T06:24:20;101691.00;;;34.90
20733;BMP180;10527;52.124;5.196;2023-07-09T06:26:47;101688.00;;;34.90
20733;BMP180;10527;52.124;5.196;2023-07-09T06:29:15;101684.00;;;35.00
20733;BMP180;10527;52.124;5.196;2023-07-09T06:31:41;101684.00;;;35.00
20733;BMP180;10527;52.124;5.196;2023-07-09T06:34:09;101696.00;;;35.10
20733;BMP180;10527;52.124;5.196;2023-07-09T06:36:36;101692.00;;;35.10
20733;BMP180;10527;52.124;5.196;2023-07-09T06:39:04;101698.00;;;35.20
20733;BMP180;10527;52.124;5.196;2023-07-09T06:41:32;101695.00;;;35.20
20733;BMP180;10527;52.124;5.196;2023-07-09T06:44:09;101703.00;;;35.30
20733;BMP180;10527;52.124;5.196;2023-07-09T06:46:36;101702.00;;;35.30
20733;BMP180;10527;52.124;5.196;2023-07-09T06:49:04;101694.00;;;35.40
20733;BMP180;10527;52.124;5.196;2023-07-09T06:51:34;101702.00;;;35.40
20733;BMP180;10527;52.124;5.196;2023-07-09T06:54:01;101689.00;;;35.50
20733;BMP180;10527;52.124;5.196;2023-07-09T06:56:27;101689.00;;;35.50
20733;BMP180;10527;52.124;5.196;2023-07-09T06:58:54;101689.00;;;35.60
20733;BMP180;10527;52.124;5.196;2023-07-09T07:01:21;101697.00;;;35.60
20733;BMP180;10527;52.124;5.196;2023-07-09T07:03:48;101696.00;;;35.70
20733;BMP180;10527;52.124;5.196;2023-07-09T07:06:16;101696.00;;;35.70
20733;BMP180;10527;52.124;5.196;2023-07-09T07:08:43;101691.00;;;35.80
20733;BMP180;10527;52.124;5.196;2023-07-09T07:11:10;101689.00;;;35.90
20733;BMP180;10527;52.124;5.196;2023-07-09T07:13:40;101693.00;;;35.90
20733;BMP180;10527;52.124;5.196;2023-07-09T07:16:11;101697.00;;;36.00
20733;BMP180;10527;52.124;5.196;2023-07-09T07:18:39;101698.00;;;36.10
20733;BMP180;10527;52.124;5.196;2023-07-09T07:21:06;101699.00;;;36.10
20733;BMP180;10527;52.124;5.196;2023-07-09T07:23:33;101701.00;;;36.20
20733;BMP180;10527;52.124;5.196;2023-07-09T07:26:00;101707.00;;;36.30
20733;BMP180;10527;52.124;5.196;2023-07-09T07:28:28;101710.00;;;36.30
20733;BMP180;10527;52.124;5.196;2023-07-09T07:31:04;101716.00;;;36.40
20733;BMP180;10527;52.124;5.196;2023-07-09T07:33:31;101711.00;;;36.40
20733;BMP180;10527;52.124;5.196;2023-07-09T07:35:59;101710.00;;;36.50
20733;BMP180;10527;52.124;5.196;2023-07-09T07:38:28;101718.00;;;36.50
20733;BMP180;10527;52.124;5.196;2023-07-09T07:40:55;101713.00;;;36.60
20733;BMP180;10527;52.124;5.196;2023-07-09T07:43:22;101711.00;;;36.60
20733;BMP180;10527;52.124;5.196;2023-07-09T07:45:49;101712.00;;;36.70
20733;BMP180;10527;52.124;5.196;2023-07-09T07:48:16;101720.00;;;36.80
20733;BMP180;10527;52.124;5.196;2023-07-09T07:50:43;101723.00;;;37.00
20733;BMP180;10527;52.124;5.196;2023-07-09T07:53:12;101728.00;;;37.10
20733;BMP180;10527;52.124;5.196;2023-07-09T07:55:41;101726.00;;;37.30
20733;BMP180;10527;52.124;5.196;2023-07-09T07:58:13;101712.00;;;37.40
20733;BMP180;10527;52.124;5.196;2023-07-09T08:00:40;101717.00;;;37.60
20733;BMP180;10527;52.124;5.196;2023-07-09T08:03:07;101718.00;;;37.70
20733;BMP180;10527;52.124;5.196;2023-07-09T08:05:34;101717.00;;;37.80
20733;BMP180;10527;52.124;5.196;2023-07-09T08:08:01;101716.00;;;37.90
20733;BMP180;10527;52.124;5.196;2023-07-09T08:10:28;101708.00;;;38.00
20733;BMP180;10527;52.124;5.196;2023-07-09T08:12:55;101712.00;;;38.10
20733;BMP180;10527;52.124;5.196;2023-07-09T08:15:27;101714.00;;;38.20
20733;BMP180;10527;52.124;5.196;2023-07-09T08:17:54;101710.00;;;38.30
20733;BMP180;10527;52.124;5.196;2023-07-09T08:20:21;101707.00;;;38.40
20733;BMP180;10527;52.124;5.196;2023-07-09T08:22:48;101706.00;;;38.50
20733;BMP180;10527;52.124;5.196;2023-07-09T08:25:15;101712.00;;;38.60
20733;BMP180;10527;52.124;5.196;2023-07-09T08:27:42;101709.00;;;38.70
20733;BMP180;10527;52.124;5.196;2023-07-09T08:30:09;101709.00;;;38.80
20733;BMP180;10527;52.124;5.196;2023-07-09T08:32:36;101703.00;;;38.90
20733;BMP180;10527;52.124;5.196;2023-07-09T08:35:04;101698.00;;;39.00
20733;BMP180;10527;52.124;5.196;2023-07-09T08:37:51;101702.00;;;39.00
20733;BMP180;10527;52.124;5.196;2023-07-09T08:40:18;101706.00;;;39.10
20733;BMP180;10527;52.124;5.196;2023-07-09T08:42:55;101694.00;;;39.20
20733;BMP180;10527;52.124;5.196;2023-07-09T08:48:31;101703.00;;;39.40
20733;BMP180;10527;52.124;5.196;2023-07-09T08:51:17;101700.00;;;39.50
20733;BMP180;10527;52.124;5.196;2023-07-09T08:53:54;101698.00;;;39.60
20733;BMP180;10527;52.124;5.196;2023-07-09T08:56:25;101692.00;;;39.70
20733;BMP180;10527;52.124;5.196;2023-07-09T08:58:59;101693.00;;;39.80
20733;BMP180;10527;52.124;5.196;2023-07-09T09:01:43;101693.00;;;39.80
20733;BMP180;10527;52.124;5.196;2023-07-09T09:04:36;101686.00;;;39.90
20733;BMP180;10527;52.124;5.196;2023-07-09T09:07:39;101682.00;;;39.90
20733;BMP180;10527;52.124;5.196;2023-07-09T09:10:47;101688.00;;;40.00
20733;BMP180;10527;52.124;5.196;2023-07-09T09:13:19;101688.00;;;40.00
20733;BMP180;10527;52.124;5.196;2023-07-09T09:15:48;101690.00;;;40.10
20733;BMP180;10527;52.124;5.196;2023-07-09T09:18:26;101686.00;;;40.20
20733;BMP180;10527;52.124;5.196;2023-07-09T09:21:05;101693.00;;;40.30
20733;BMP180;10527;52.124;5.196;2023-07-09T09:23:52;101694.00;;;40.40
20733;BMP180;10527;52.124;5.196;2023-07-09T09:26:32;101694.00;;;40.50
20733;BMP180;10527;52.124;5.196;2023-07-09T09:29:11;101689.00;;;40.50
20733;BMP180;10527;52.124;5.196;2023-07-09T09:31:38;101680.00;;;40.50
20733;BMP180;10527;52.124;5.196;2023-07-09T09:34:05;101682.00;;;40.60
20733;BMP180;10527;52.124;5.196;2023-07-09T09:36:37;101674.00;;;40.60
20733;BMP180;10527;52.124;5.196;2023-07-09T09:39:04;101672.00;;;40.60
20733;BMP180;10527;52.124;5.196;2023-07-09T09:41:37;101676.00;;;40.70
20733;BMP180;10527;52.124;5.196;2023-07-09T09:44:18;101683.00;;;40.80
20733;BMP180;10527;52.124;5.196;2023-07-09T09:46:48;101688.00;;;40.80
20733;BMP180;10527;52.124;5.196;2023-07-09T09:49:19;101681.00;;;40.90
20733;BMP180;10527;52.124;5.196;2023-07-09T09:51:47;101676.00;;;40.90
20733;BMP180;10527;52.124;5.196;2023-07-09T09:54:20;101679.00;;;41.00
20733;BMP180;10527;52.124;5.196;2023-07-09T09:56:49;101681.00;;;41.00
20733;BMP180;10527;52.124;5.196;2023-07-09T09:59:32;101670.00;;;41.10
20733;BMP180;10527;52.124;5.196;2023-07-09T10:02:23;101671.00;;;41.20
20733;BMP180;10527;52.124;5.196;2023-07-09T10:04:52;101673.00;;;41.20
20733;BMP180;10527;52.124;5.196;2023-07-09T10:07:38;101675.00;;;41.30
20733;BMP180;10527;52.124;5.196;2023-07-09T10:10:21;101674.00;;;41.40
20733;BMP180;10527;52.124;5.196;2023-07-09T10:13:09;101671.00;;;41.40
20733;BMP180;10527;52.124;5.196;2023-07-09T10:16:24;101661.00;;;41.50
20733;BMP180;10527;52.124;5.196;2023-07-09T10:19:31;101668.00;;;41.50
20733;BMP180;10527;52.124;5.196;2023-07-09T10:25:48;101678.00;;;41.50
20733;BMP180;10527;52.124;5.196;2023-07-09T10:32:23;101676.00;;;41.40
20733;BMP180;10527;52.124;5.196;2023-07-09T10:38:24;101689.00;;;41.20
20733;BMP180;10527;52.124;5.196;2023-07-09T10:40:58;101690.00;;;41.20
20733;BMP180;10527;52.124;5.196;2023-07-09T10:43:50;101700.00;;;41.10
20733;BMP180;10527;52.124;5.196;2023-07-09T10:46:31;101698.00;;;41.10
20733;BMP180;10527;52.124;5.196;2023-07-09T10:49:39;101699.00;;;41.00
20733;BMP180;10527;52.124;5.196;2023-07-09T10:55:16;101687.00;;;40.90
20733;BMP180;10527;52.124;5.196;2023-07-09T10:58:10;101688.00;;;40.90
20733;BMP180;10527;52.124;5.196;2023-07-09T11:00:52;101691.00;;;40.80
20733;BMP180;10527;52.124;5.196;2023-07-09T11:06:28;101687.00;;;40.90
20733;BMP180;10527;52.124;5.196;2023-07-09T11:08:58;101681.00;;;40.90
20733;BMP180;10527;52.124;5.196;2023-07-09T11:11:59;101674.00;;;41.00
20733;BMP180;10527;52.124;5.196;2023-07-09T11:14:45;101677.00;;;41.10
20733;BMP180;10527;52.124;5.196;2023-07-09T11:17:20;101680.00;;;41.20
20733;BMP180;10527;52.124;5.196;2023-07-09T11:19:59;101684.00;;;41.20
20733;BMP180;10527;52.124;5.196;2023-07-09T11:22:38;101675.00;;;41.20
20733;BMP180;10527;52.124;5.196;2023-07-09T11:25:30;101666.00;;;41.20
20733;BMP180;10527;52.124;5.196;2023-07-09T11:28:05;101668.00;;;41.20
20733;BMP180;10527;52.124;5.196;2023-07-09T11:30:48;101658.00;;;41.20
20733;BMP180;10527;52.124;5.196;2023-07-09T11:33:48;101664.00;;;41.30
20733;BMP180;10527;52.124;5.196;2023-07-09T11:36:28;101667.00;;;41.30
20733;BMP180;10527;52.124;5.196;2023-07-09T11:38:55;101680.00;;;41.30
20733;BMP180;10527;52.124;5.196;2023-07-09T11:44:23;101664.00;;;41.30
20733;BMP180;10527;52.124;5.196;2023-07-09T11:47:19;101671.00;;;41.30
20733;BMP180;10527;52.124;5.196;2023-07-09T11:55:49;101682.00;;;41.30
20733;BMP180;10527;52.124;5.196;2023-07-09T11:58:18;101690.00;;;41.30
20733;BMP180;10527;52.124;5.196;2023-07-09T12:00:49;101698.00;;;41.30
20733;BMP180;10527;52.124;5.196;2023-07-09T12:03:30;101706.00;;;41.20
20733;BMP180;10527;52.124;5.196;2023-07-09T12:06:28;101709.00;;;41.10
20733;BMP180;10527;52.124;5.196;2023-07-09T12:08:57;101715.00;;;41.00
20733;BMP180;10527;52.124;5.196;2023-07-09T12:11:34;101726.00;;;41.00
20733;BMP180;10527;52.124;5.196;2023-07-09T12:14:11;101714.00;;;40.90
20733;BMP180;10527;52.124;5.196;2023-07-09T12:16:42;101720.00;;;40.90
20733;BMP180;10527;52.124;5.196;2023-07-09T12:19:15;101733.00;;;40.80
20733;BMP180;10527;52.124;5.196;2023-07-09T12:21:48;101729.00;;;40.80
20733;BMP180;10527;52.124;5.196;2023-07-09T12:24:44;101727.00;;;40.80
20733;BMP180;10527;52.124;5.196;2023-07-09T12:27:26;101729.00;;;40.70
20733;BMP180;10527;52.124;5.196;2023-07-09T12:29:56;101729.00;;;40.60
20733;BMP180;10527;52.124;5.196;2023-07-09T12:32:24;101742.00;;;40.60
20733;BMP180;10527;52.124;5.196;2023-07-09T12:34:56;101757.00;;;40.50
20733;BMP180;10527;52.124;5.196;2023-07-09T12:37:27;101764.00;;;40.50
20733;BMP180;10527;52.124;5.196;2023-07-09T12:39:59;101772.00;;;40.50
20733;BMP180;10527;52.124;5.196;2023-07-09T12:42:35;101767.00;;;40.40
20733;BMP180;10527;52.124;5.196;2023-07-09T12:45:05;101764.00;;;40.40
20733;BMP180;10527;52.124;5.196;2023-07-09T12:47:34;101751.00;;;40.30
20733;BMP180;10527;52.124;5.196;2023-07-09T12:52:48;101743.00;;;40.20
20733;BMP180;10527;52.124;5.196;2023-07-09T12:55:29;101752.00;;;40.10
20733;BMP180;10527;52.124;5.196;2023-07-09T12:58:09;101765.00;;;40.00
20733;BMP180;10527;52.124;5.196;2023-07-09T13:00:36;101760.00;;;39.80
20733;BMP180;10527;52.124;5.196;2023-07-09T13:03:13;101756.00;;;39.70
20733;BMP180;10527;52.124;5.196;2023-07-09T13:05:54;101742.00;;;39.70
20733;BMP180;10527;52.124;5.196;2023-07-09T13:08:22;101745.00;;;39.60
20733;BMP180;10527;52.124;5.196;2023-07-09T13:10:49;101752.00;;;39.60
20733;BMP180;10527;52.124;5.196;2023-07-09T13:13:21;101752.00;;;39.60
20733;BMP180;10527;52.124;5.196;2023-07-09T13:15:57;101753.00;;;39.60
20733;BMP180;10527;52.124;5.196;2023-07-09T13:18:26;101753.00;;;39.60
20733;BMP180;10527;52.124;5.196;2023-07-09T13:20:55;101749.00;;;39.50
20733;BMP180;10527;52.124;5.196;2023-07-09T13:23:28;101749.00;;;39.50
20733;BMP180;10527;52.124;5.196;2023-07-09T13:25:56;101754.00;;;39.50
20733;BMP180;10527;52.124;5.196;2023-07-09T13:28:31;101763.00;;;39.40
20733;BMP180;10527;52.124;5.196;2023-07-09T13:31:08;101767.00;;;39.40
20733;BMP180;10527;52.124;5.196;2023-07-09T13:33:36;101756.00;;;39.40
20733;BMP180;10527;52.124;5.196;2023-07-09T13:36:05;101759.00;;;39.30
20733;BMP180;10527;52.124;5.196;2023-07-09T13:38:33;101764.00;;;39.20
20733;BMP180;10527;52.124;5.196;2023-07-09T13:41:18;101776.00;;;39.20
20733;BMP180;10527;52.124;5.196;2023-07-09T13:43:49;101768.00;;;39.00
20733;BMP180;10527;52.124;5.196;2023-07-09T13:46:16;101761.00;;;38.90
20733;BMP180;10527;52.124;5.196;2023-07-09T13:48:44;101762.00;;;38.80
20733;BMP180;10527;52.124;5.196;2023-07-09T13:51:21;101756.00;;;38.60
20733;BMP180;10527;52.124;5.196;2023-07-09T13:53:52;101758.00;;;38.40
20733;BMP180;10527;52.124;5.196;2023-07-09T13:56:21;101758.00;;;38.20
20733;BMP180;10527;52.124;5.196;2023-07-09T13:58:48;101756.00;;;37.90
20733;BMP180;10527;52.124;5.196;2023-07-09T14:01:22;101767.00;;;37.70
20733;BMP180;10527;52.124;5.196;2023-07-09T14:03:58;101765.00;;;37.50
20733;BMP180;10527;52.124;5.196;2023-07-09T14:06:26;101760.00;;;37.30
20733;BMP180;10527;52.124;5.196;2023-07-09T14:08:53;101765.00;;;37.10
20733;BMP180;10527;52.124;5.196;2023-07-09T14:11:20;101751.00;;;37.00
20733;BMP180;10527;52.124;5.196;2023-07-09T14:13:48;101735.00;;;36.80
20733;BMP180;10527;52.124;5.196;2023-07-09T14:16:15;101729.00;;;36.70
20733;BMP180;10527;52.124;5.196;2023-07-09T14:18:42;101719.00;;;36.60
20733;BMP180;10527;52.124;5.196;2023-07-09T14:21:18;101730.00;;;36.40
20733;BMP180;10527;52.124;5.196;2023-07-09T14:23:46;101742.00;;;36.30
20733;BMP180;10527;52.124;5.196;2023-07-09T14:26:13;101730.00;;;36.30
20733;BMP180;10527;52.124;5.196;2023-07-09T14:28:41;101735.00;;;36.20
20733;BMP180;10527;52.124;5.196;2023-07-09T14:31:26;101730.00;;;36.20
20733;BMP180;10527;52.124;5.196;2023-07-09T14:33:56;101722.00;;;36.10
20733;BMP180;10527;52.124;5.196;2023-07-09T14:36:24;101719.00;;;36.10
20733;BMP180;10527;52.124;5.196;2023-07-09T14:38:50;101722.00;;;36.00
20733;BMP180;10527;52.124;5.196;2023-07-09T14:41:24;101728.00;;;36.00
20733;BMP180;10527;52.124;5.196;2023-07-09T14:43:56;101795.00;;;36.00
20733;BMP180;10527;52.124;5.196;2023-07-09T14:46:24;101942.00;;;36.00
20733;BMP180;10527;52.124;5.196;2023-07-09T14:48:51;101986.00;;;35.90
20733;BMP180;10527;52.124;5.196;2023-07-09T14:51:18;101942.00;;;35.80
20733;BMP180;10527;52.124;5.196;2023-07-09T14:53:45;101892.00;;;35.70
20733;BMP180;10527;52.124;5.196;2023-07-09T14:56:14;101906.00;;;35.50
20733;BMP180;10527;52.124;5.196;2023-07-09T14:58:41;101910.00;;;35.30